sensor_id;sensor_type;location;lat;lon;timestamp;temperature;humidity
25112;DHT22;13092;51.996;4.458;2022-12-10T00:01:47;1.50;99.90
25112;DHT22;13092;51.996;4.458;2022-12-10T00:04:17;1.60;99.90
25112;DHT22;13092;51.996;4.458;2022-12-10T00:06:47;1.70;99.90
25112;DHT22;13092;51.996;4.458;2022-12-10T00:09:17;1.50;99.90
25112;DHT22;13092;51.996;4.458;2022-12-10T00:11:47;1.40;99.90
25112;DHT22;13092;51.996;4.458;2022-12-10T00:14:17;1.40;99.90
25112;DHT22;13092;51.996;4.458;2022-12-10T00:16:46;1.40;99.90
25112;DHT22;13092;51.996;4.458;2022-12-10T00:19:14;1.40;99.90
25112;DHT22;13092;51.996;4.458;2022-12-10T00:21:43;1.40;99.90
25112;DHT22;13092;51.996;4.458;2022-12-10T00:24:17;1.40;99.90
25112;DHT22;13092;51.996;4.458;2022-12-10T00:26:46;1.40;99.90
25112;DHT22;13092;51.996;4.458;2022-12-10T00:29:14;1.40;99.90
25112;DHT22;13092;51.996;4.458;2022-12-10T00:31:44;1.40;99.90
25112;DHT22;13092;51.996;4.458;2022-12-10T00:34:12;1.30;99.90
25112;DHT22;13092;51.996;4.458;2022-12-10T00:36:43;1.30;99.90
25112;DHT22;13092;51.996;4.458;2022-12-10T00:39:12;1.30;99.90
25112;DHT22;13092;51.996;4.458;2022-12-10T00:41:41;1.20;99.90
25112;DHT22;13092;51.996;4.458;2022-12-10T00:44:09;1.20;99.90
25112;DHT22;13092;51.996;4.458;2022-12-10T00:46:37;1.20;99.90
25112;DHT22;13092;51.996;4.458;2022-12-10T00:49:07;1.10;99.90
25112;DHT22;13092;51.996;4.458;2022-12-10T00:51:35;1.10;99.90
25112;DHT22;13092;51.996;4.458;2022-12-10T00:54:06;1.10;99.90
25112;DHT22;13092;51.996;4.458;2022-12-10T00:56:34;1.10;99.90
25112;DHT22;13092;51.996;4.458;2022-12-10T00:59:03;1.10;99.90
25112;DHT22;13092;51.996;4.458;2022-12-10T01:01:33;1.30;99.90
25112;DHT22;13092;51.996;4.458;2022-12-10T01:04:04;1.10;99.90
25112;DHT22;13092;51.996;4.458;2022-12-10T01:06:36;1.00;99.90
25112;DHT22;13092;51.996;4.458;2022-12-10T01:09:07;1.00;99.90
25112;DHT22;13092;51.996;4.458;2022-12-10T01:11:38;1.00;99.90
25112;DHT22;13092;51.996;4.458;2022-12-10T01:14:08;1.00;99.90
25112;DHT22;13092;51.996;4.458;2022-12-10T01:16:36;1.10;99.90
25112;DHT22;13092;51.996;4.458;2022-12-10T01:19:05;1.00;99.90
25112;DHT22;13092;51.996;4.458;2022-12-10T01:21:34;1.00;99.90
25112;DHT22;13092;51.996;4.458;2022-12-10T01:24:03;1.10;99.90
25112;DHT22;13092;51.996;4.458;2022-12-10T01:26:33;1.10;99.90
25112;DHT22;13092;51.996;4.458;2022-12-10T01:29:13;1.20;99.90
25112;DHT22;13092;51.996;4.458;2022-12-10T01:31:42;1.10;99.90
25112;DHT22;13092;51.996;4.458;2022-12-10T01:34:12;1.20;99.90
25112;DHT22;13092;51.996;4.458;2022-12-10T01:36:44;1.20;99.90
25112;DHT22;13092;51.996;4.458;2022-12-10T01:39:15;1.20;99.90
25112;DHT22;13092;51.996;4.458;2022-12-10T01:41:51;1.30;99.90
25112;DHT22;13092;51.996;4.458;2022-12-10T01:44:58;1.30;99.90
25112;DHT22;13092;51.996;4.458;2022-12-10T01:47:26;1.40;99.90
25112;DHT22;13092;51.996;4.458;2022-12-10T01:49:57;1.40;99.90
25112;DHT22;13092;51.996;4.458;2022-12-10T01:52:27;1.40;99.90
25112;DHT22;13092;51.996;4.458;2022-12-10T01:54:56;1.40;99.90
25112;DHT22;13092;51.996;4.458;2022-12-10T01:57:29;1.40;99.90
25112;DHT22;13092;51.996;4.458;2022-12-10T01:59:59;1.50;99.90
25112;DHT22;13092;51.996;4.458;2022-12-10T02:02:36;1.40;99.90
25112;DHT22;13092;51.996;4.458;2022-12-10T02:05:17;1.40;99.90
25112;DHT22;13092;51.996;4.458;2022-12-10T02:07:59;1.40;99.90
25112;DHT22;13092;51.996;4.458;2022-12-10T02:10:41;1.50;99.90
25112;DHT22;13092;51.996;4.458;2022-12-10T02:13:13;1.40;99.90
25112;DHT22;13092;51.996;4.458;2022-12-10T02:15:50;1.50;99.90
25112;DHT22;13092;51.996;4.458;2022-12-10T02:18:21;1.50;99.90
25112;DHT22;13092;51.996;4.458;2022-12-10T02:20:54;1.50;99.90
25112;DHT22;13092;51.996;4.458;2022-12-10T02:23:28;1.50;99.90
25112;DHT22;13092;51.996;4.458;2022-12-10T02:26:02;1.60;99.90
25112;DHT22;13092;51.996;4.458;2022-12-10T02:28:37;1.60;99.90
25112;DHT22;13092;51.996;4.458;2022-12-10T02:31:09;1.60;99.90
25112;DHT22;13092;51.996;4.458;2022-12-10T02:33:40;1.60;99.90
25112;DHT22;13092;51.996;4.458;2022-12-10T02:36:11;1.60;99.90
25112;DHT22;13092;51.996;4.458;2022-12-10T02:38:42;1.70;99.90
25112;DHT22;13092;51.996;4.458;2022-12-10T02:41:15;1.60;99.90
25112;DHT22;13092;51.996;4.458;2022-12-10T02:43:45;1.70;99.90
25112;DHT22;13092;51.996;4.458;2022-12-10T02:46:16;1.70;99.90
25112;DHT22;13092;51.996;4.458;2022-12-10T02:48:45;1.70;99.90
25112;DHT22;13092;51.996;4.458;2022-12-10T02:51:14;1.70;99.90
25112;DHT22;13092;51.996;4.458;2022-12-10T02:53:43;1.70;99.90
25112;DHT22;13092;51.996;4.458;2022-12-10T02:56:17;1.70;99.90
25112;DHT22;13092;51.996;4.458;2022-12-10T02:58:56;1.70;99.90
25112;DHT22;13092;51.996;4.458;2022-12-10T03:01:37;1.70;99.90
25112;DHT22;13092;51.996;4.458;2022-12-10T03:04:16;1.70;99.90
25112;DHT22;13092;51.996;4.458;2022-12-10T03:06:49;1.70;99.90
25112;DHT22;13092;51.996;4.458;2022-12-10T03:09:22;1.70;99.90
25112;DHT22;13092;51.996;4.458;2022-12-10T03:11:57;1.80;99.90
25112;DHT22;13092;51.996;4.458;2022-12-10T03:14:29;1.80;99.90
25112;DHT22;13092;51.996;4.458;2022-12-10T03:17:01;1.80;99.90
25112;DHT22;13092;51.996;4.458;2022-12-10T03:19:34;1.80;99.90
25112;DHT22;13092;51.996;4.458;2022-12-10T03:22:05;1.70;99.90
25112;DHT22;13092;51.996;4.458;2022-12-10T03:24:35;1.80;99.90
25112;DHT22;13092;51.996;4.458;2022-12-10T03:27:05;1.90;99.90
25112;DHT22;13092;51.996;4.458;2022-12-10T03:29:37;1.90;99.90
25112;DHT22;13092;51.996;4.458;2022-12-10T03:32:07;1.90;99.90
25112;DHT22;13092;51.996;4.458;2022-12-10T03:34:37;2.00;99.90
25112;DHT22;13092;51.996;4.458;2022-12-10T03:37:06;2.00;99.90
25112;DHT22;13092;51.996;4.458;2022-12-10T03:39:34;2.00;99.90
25112;DHT22;13092;51.996;4.458;2022-12-10T03:42:04;2.20;99.90
25112;DHT22;13092;51.996;4.458;2022-12-10T03:44:33;2.00;99.90
25112;DHT22;13092;51.996;4.458;2022-12-10T03:47:03;2.00;99.90
25112;DHT22;13092;51.996;4.458;2022-12-10T03:49:33;2.10;99.90
25112;DHT22;13092;51.996;4.458;2022-12-10T03:52:01;2.00;99.90
25112;DHT22;13092;51.996;4.458;2022-12-10T03:54:29;2.00;99.90
25112;DHT22;13092;51.996;4.458;2022-12-10T03:56:57;2.00;99.90
25112;DHT22;13092;51.996;4.458;2022-12-10T03:59:27;2.10;99.90
25112;DHT22;13092;51.996;4.458;2022-12-10T04:01:58;2.00;99.90
25112;DHT22;13092;51.996;4.458;2022-12-10T04:04:37;2.00;99.90
25112;DHT22;13092;51.996;4.458;2022-12-10T04:07:06;2.00;99.90
25112;DHT22;13092;51.996;4.458;2022-12-10T04:09:34;1.90;99.90
25112;DHT22;13092;51.996;4.458;2022-12-10T04:12:11;2.00;99.90
25112;DHT22;13092;51.996;4.458;2022-12-10T04:14:40;2.00;99.90
25112;DHT22;13092;51.996;4.458;2022-12-10T04:17:25;2.10;99.90
25112;DHT22;13092;51.996;4.458;2022-12-10T04:19:58;2.10;99.90
25112;DHT22;13092;51.996;4.458;2022-12-10T04:22:26;2.10;99.90
25112;DHT22;13092;51.996;4.458;2022-12-10T04:25:12;2.10;99.90
25112;DHT22;13092;51.996;4.458;2022-12-10T04:27:58;2.10;99.90
25112;DHT22;13092;51.996;4.458;2022-12-10T04:30:26;2.10;99.90
25112;DHT22;13092;51.996;4.458;2022-12-10T04:32:56;2.10;99.90
25112;DHT22;13092;51.996;4.458;2022-12-10T04:35:25;2.10;99.90
25112;DHT22;13092;51.996;4.458;2022-12-10T04:37:53;2.20;99.90
25112;DHT22;13092;51.996;4.458;2022-12-10T04:40:21;2.20;99.90
25112;DHT22;13092;51.996;4.458;2022-12-10T04:42:50;2.20;99.90
25112;DHT22;13092;51.996;4.458;2022-12-10T04:45:18;2.20;99.90
25112;DHT22;13092;51.996;4.458;2022-12-10T04:47:46;2.00;99.90
25112;DHT22;13092;51.996;4.458;2022-12-10T04:50:14;2.20;99.90
25112;DHT22;13092;51.996;4.458;2022-12-10T04:52:44;2.20;99.90
25112;DHT22;13092;51.996;4.458;2022-12-10T04:55:12;2.10;99.90
25112;DHT22;13092;51.996;4.458;2022-12-10T04:57:43;2.20;99.90
25112;DHT22;13092;51.996;4.458;2022-12-10T05:00:12;2.20;99.90
25112;DHT22;13092;51.996;4.458;2022-12-10T05:02:40;2.20;99.90
25112;DHT22;13092;51.996;4.458;2022-12-10T05:05:08;2.20;99.90
25112;DHT22;13092;51.996;4.458;2022-12-10T05:07:37;2.30;99.90
25112;DHT22;13092;51.996;4.458;2022-12-10T05:10:07;2.30;99.90
25112;DHT22;13092;51.996;4.458;2022-12-10T05:12:36;2.30;99.90
25112;DHT22;13092;51.996;4.458;2022-12-10T05:15:05;2.40;99.90
25112;DHT22;13092;51.996;4.458;2022-12-10T05:17:33;2.30;99.90
25112;DHT22;13092;51.996;4.458;2022-12-10T05:20:02;2.30;99.90
25112;DHT22;13092;51.996;4.458;2022-12-10T05:22:32;2.30;99.90
25112;DHT22;13092;51.996;4.458;2022-12-10T05:25:19;2.30;99.90
25112;DHT22;13092;51.996;4.458;2022-12-10T05:27:47;2.30;99.90
25112;DHT22;13092;51.996;4.458;2022-12-10T05:30:15;2.30;99.90
25112;DHT22;13092;51.996;4.458;2022-12-10T05:32:43;2.40;99.90
25112;DHT22;13092;51.996;4.458;2022-12-10T05:35:12;2.40;99.90
25112;DHT22;13092;51.996;4.458;2022-12-10T05:37:40;2.40;99.90
25112;DHT22;13092;51.996;4.458;2022-12-10T05:40:09;2.40;99.90
25112;DHT22;13092;51.996;4.458;2022-12-10T05:42:39;2.40;99.90
25112;DHT22;13092;51.996;4.458;2022-12-10T05:45:08;2.30;99.90
25112;DHT22;13092;51.996;4.458;2022-12-10T05:47:36;2.30;99.90
25112;DHT22;13092;51.996;4.458;2022-12-10T05:50:05;2.20;99.90
25112;DHT22;13092;51.996;4.458;2022-12-10T05:52:34;2.30;99.90
25112;DHT22;13092;51.996;4.458;2022-12-10T05:55:02;2.30;99.90
25112;DHT22;13092;51.996;4.458;2022-12-10T05:57:30;2.40;99.90
25112;DHT22;13092;51.996;4.458;2022-12-10T05:59:59;2.30;99.90
25112;DHT22;13092;51.996;4.458;2022-12-10T06:02:27;2.30;99.90
25112;DHT22;13092;51.996;4.458;2022-12-10T06:04:56;2.30;99.90
25112;DHT22;13092;51.996;4.458;2022-12-10T06:07:27;2.30;99.90
25112;DHT22;13092;51.996;4.458;2022-12-10T06:09:57;2.30;99.90
25112;DHT22;13092;51.996;4.458;2022-12-10T06:12:25;2.30;99.90
25112;DHT22;13092;51.996;4.458;2022-12-10T06:14:53;2.30;99.90
25112;DHT22;13092;51.996;4.458;2022-12-10T06:17:23;2.20;99.90
25112;DHT22;13092;51.996;4.458;2022-12-10T06:19:51;2.20;99.90
25112;DHT22;13092;51.996;4.458;2022-12-10T06:22:19;2.20;99.90
25112;DHT22;13092;51.996;4.458;2022-12-10T06:24:47;2.20;99.90
25112;DHT22;13092;51.996;4.458;2022-12-10T06:27:16;2.20;99.90
25112;DHT22;13092;51.996;4.458;2022-12-10T06:29:44;2.20;99.90
25112;DHT22;13092;51.996;4.458;2022-12-10T06:32:16;2.00;99.90
25112;DHT22;13092;51.996;4.458;2022-12-10T06:34:45;2.20;99.90
25112;DHT22;13092;51.996;4.458;2022-12-10T06:37:14;2.20;99.90
25112;DHT22;13092;51.996;4.458;2022-12-10T06:39:45;2.20;99.90
25112;DHT22;13092;51.996;4.458;2022-12-10T06:42:14;2.20;99.90
25112;DHT22;13092;51.996;4.458;2022-12-10T06:44:42;2.00;99.90
25112;DHT22;13092;51.996;4.458;2022-12-10T06:47:10;2.10;99.90
25112;DHT22;13092;51.996;4.458;2022-12-10T06:49:38;2.00;99.90
25112;DHT22;13092;51.996;4.458;2022-12-10T06:52:08;1.90;99.90
25112;DHT22;13092;51.996;4.458;2022-12-10T06:54:36;2.00;99.90
25112;DHT22;13092;51.996;4.458;2022-12-10T06:57:05;1.90;99.90
25112;DHT22;13092;51.996;4.458;2022-12-10T06:59:33;2.00;99.90
25112;DHT22;13092;51.996;4.458;2022-12-10T07:02:02;1.90;99.90
25112;DHT22;13092;51.996;4.458;2022-12-10T07:04:30;2.00;99.90
25112;DHT22;13092;51.996;4.458;2022-12-10T07:07:01;2.00;99.90
25112;DHT22;13092;51.996;4.458;2022-12-10T07:09:36;2.00;99.90
25112;DHT22;13092;51.996;4.458;2022-12-10T07:12:05;2.00;99.90
25112;DHT22;13092;51.996;4.458;2022-12-10T07:14:33;2.00;99.90
25112;DHT22;13092;51.996;4.458;2022-12-10T07:17:02;2.10;99.90
25112;DHT22;13092;51.996;4.458;2022-12-10T07:19:31;2.10;99.90
25112;DHT22;13092;51.996;4.458;2022-12-10T07:22:00;2.10;99.90
25112;DHT22;13092;51.996;4.458;2022-12-10T07:24:28;2.10;99.90
25112;DHT22;13092;51.996;4.458;2022-12-10T07:26:57;2.10;99.90
25112;DHT22;13092;51.996;4.458;2022-12-10T07:29:25;2.10;99.90
25112;DHT22;13092;51.996;4.458;2022-12-10T07:31:54;2.00;99.90
25112;DHT22;13092;51.996;4.458;2022-12-10T07:34:22;2.00;99.90
25112;DHT22;13092;51.996;4.458;2022-12-10T07:36:50;2.10;99.90
25112;DHT22;13092;51.996;4.458;2022-12-10T07:39:19;2.10;99.90
25112;DHT22;13092;51.996;4.458;2022-12-10T07:41:51;2.10;99.90
25112;DHT22;13092;51.996;4.458;2022-12-10T07:44:22;2.20;99.90
25112;DHT22;13092;51.996;4.458;2022-12-10T07:46:53;2.10;99.90
25112;DHT22;13092;51.996;4.458;2022-12-10T07:49:24;2.20;99.90
25112;DHT22;13092;51.996;4.458;2022-12-10T07:51:52;2.00;99.90
25112;DHT22;13092;51.996;4.458;2022-12-10T07:54:21;2.20;99.90
25112;DHT22;13092;51.996;4.458;2022-12-10T07:56:49;2.20;99.90
25112;DHT22;13092;51.996;4.458;2022-12-10T07:59:17;2.20;99.90
25112;DHT22;13092;51.996;4.458;2022-12-10T08:01:47;2.30;99.90
25112;DHT22;13092;51.996;4.458;2022-12-10T08:04:16;2.30;99.90
25112;DHT22;13092;51.996;4.458;2022-12-10T08:06:44;2.20;99.90
25112;DHT22;13092;51.996;4.458;2022-12-10T08:09:12;2.20;99.90
25112;DHT22;13092;51.996;4.458;2022-12-10T08:11:40;2.20;99.90
25112;DHT22;13092;51.996;4.458;2022-12-10T08:14:09;2.20;99.90
25112;DHT22;13092;51.996;4.458;2022-12-10T08:16:37;2.10;99.90
25112;DHT22;13092;51.996;4.458;2022-12-10T08:19:06;2.10;99.90
25112;DHT22;13092;51.996;4.458;2022-12-10T08:21:34;2.30;99.90
25112;DHT22;13092;51.996;4.458;2022-12-10T08:24:04;2.20;99.90
25112;DHT22;13092;51.996;4.458;2022-12-10T08:26:35;2.20;99.90
25112;DHT22;13092;51.996;4.458;2022-12-10T08:29:03;2.10;99.90
25112;DHT22;13092;51.996;4.458;2022-12-10T08:31:31;2.10;99.90
25112;DHT22;13092;51.996;4.458;2022-12-10T08:34:09;2.10;99.90
25112;DHT22;13092;51.996;4.458;2022-12-10T08:36:41;2.10;99.90
25112;DHT22;13092;51.996;4.458;2022-12-10T08:39:11;2.10;99.90
25112;DHT22;13092;51.996;4.458;2022-12-10T08:41:42;2.10;99.90
25112;DHT22;13092;51.996;4.458;2022-12-10T08:44:11;2.10;99.90
25112;DHT22;13092;51.996;4.458;2022-12-10T08:46:39;2.10;99.90
25112;DHT22;13092;51.996;4.458;2022-12-10T08:49:10;2.20;99.90
25112;DHT22;13092;51.996;4.458;2022-12-10T08:51:39;2.20;99.90
25112;DHT22;13092;51.996;4.458;2022-12-10T08:54:07;2.10;99.90
25112;DHT22;13092;51.996;4.458;2022-12-10T08:56:35;2.20;99.90
25112;DHT22;13092;51.996;4.458;2022-12-10T08:59:06;2.20;99.90
25112;DHT22;13092;51.996;4.458;2022-12-10T09:01:34;2.20;99.90
25112;DHT22;13092;51.996;4.458;2022-12-10T09:04:03;2.10;99.90
25112;DHT22;13092;51.996;4.458;2022-12-10T09:06:33;2.10;99.90
25112;DHT22;13092;51.996;4.458;2022-12-10T09:09:02;2.10;99.90
25112;DHT22;13092;51.996;4.458;2022-12-10T09:11:32;2.10;99.90
25112;DHT22;13092;51.996;4.458;2022-12-10T09:14:01;2.10;99.90
25112;DHT22;13092;51.996;4.458;2022-12-10T09:16:31;2.00;99.90
25112;DHT22;13092;51.996;4.458;2022-12-10T09:19:00;2.00;99.90
25112;DHT22;13092;51.996;4.458;2022-12-10T09:21:28;2.00;99.90
25112;DHT22;13092;51.996;4.458;2022-12-10T09:23:58;2.00;99.90
25112;DHT22;13092;51.996;4.458;2022-12-10T09:26:27;2.00;99.90
25112;DHT22;13092;51.996;4.458;2022-12-10T09:28:58;2.10;99.90
25112;DHT22;13092;51.996;4.458;2022-12-10T09:31:27;2.10;99.90
25112;DHT22;13092;51.996;4.458;2022-12-10T09:33:55;2.10;99.90
25112;DHT22;13092;51.996;4.458;2022-12-10T09:36:24;2.10;99.90
25112;DHT22;13092;51.996;4.458;2022-12-10T09:39:01;2.10;99.90
25112;DHT22;13092;51.996;4.458;2022-12-10T09:41:56;2.20;99.90
25112;DHT22;13092;51.996;4.458;2022-12-10T09:44:34;2.20;99.90
25112;DHT22;13092;51.996;4.458;2022-12-10T09:47:08;2.20;99.90
25112;DHT22;13092;51.996;4.458;2022-12-10T09:49:47;2.20;99.90
25112;DHT22;13092;51.996;4.458;2022-12-10T09:52:19;2.20;99.90
25112;DHT22;13092;51.996;4.458;2022-12-10T09:54:52;2.30;99.90
25112;DHT22;13092;51.996;4.458;2022-12-10T09:57:27;2.10;99.90
25112;DHT22;13092;51.996;4.458;2022-12-10T10:00:00;2.10;99.90
25112;DHT22;13092;51.996;4.458;2022-12-10T10:02:31;2.20;99.90
25112;DHT22;13092;51.996;4.458;2022-12-10T10:05:09;2.40;99.90
25112;DHT22;13092;51.996;4.458;2022-12-10T10:07:41;2.20;99.90
25112;DHT22;13092;51.996;4.458;2022-12-10T10:10:21;2.20;99.90
25112;DHT22;13092;51.996;4.458;2022-12-10T10:12:53;2.20;99.90
25112;DHT22;13092;51.996;4.458;2022-12-10T10:15:27;2.20;99.90
25112;DHT22;13092;51.996;4.458;2022-12-10T10:17:59;2.20;99.90
25112;DHT22;13092;51.996;4.458;2022-12-10T10:20:30;2.10;99.90
25112;DHT22;13092;51.996;4.458;2022-12-10T10:23:02;2.10;99.90
25112;DHT22;13092;51.996;4.458;2022-12-10T10:25:32;2.10;99.90
25112;DHT22;13092;51.996;4.458;2022-12-10T10:28:00;2.20;99.90
25112;DHT22;13092;51.996;4.458;2022-12-10T10:30:28;2.20;99.90
25112;DHT22;13092;51.996;4.458;2022-12-10T10:32:57;2.30;99.90
25112;DHT22;13092;51.996;4.458;2022-12-10T10:35:34;2.20;99.90
25112;DHT22;13092;51.996;4.458;2022-12-10T10:38:15;2.10;99.90
25112;DHT22;13092;51.996;4.458;2022-12-10T10:40:50;2.10;99.90
25112;DHT22;13092;51.996;4.458;2022-12-10T10:43:22;2.10;99.90
25112;DHT22;13092;51.996;4.458;2022-12-10T10:45:54;2.10;99.90
25112;DHT22;13092;51.996;4.458;2022-12-10T10:48:25;2.10;99.90
25112;DHT22;13092;51.996;4.458;2022-12-10T10:50:55;2.20;99.90
25112;DHT22;13092;51.996;4.458;2022-12-10T10:53:29;2.20;99.90
25112;DHT22;13092;51.996;4.458;2022-12-10T10:56:07;2.20;99.90
25112;DHT22;13092;51.996;4.458;2022-12-10T10:58:36;2.20;99.90
25112;DHT22;13092;51.996;4.458;2022-12-10T11:01:16;2.20;99.90
25112;DHT22;13092;51.996;4.458;2022-12-10T11:03:47;2.20;99.90
25112;DHT22;13092;51.996;4.458;2022-12-10T11:06:16;2.10;99.90
25112;DHT22;13092;51.996;4.458;2022-12-10T11:08:46;2.20;99.90
25112;DHT22;13092;51.996;4.458;2022-12-10T11:11:20;2.20;99.90
25112;DHT22;13092;51.996;4.458;2022-12-10T11:13:49;2.30;99.90
25112;DHT22;13092;51.996;4.458;2022-12-10T11:16:20;2.20;99.90
25112;DHT22;13092;51.996;4.458;2022-12-10T11:18:54;2.30;99.90
25112;DHT22;13092;51.996;4.458;2022-12-10T11:21:24;2.20;99.90
25112;DHT22;13092;51.996;4.458;2022-12-10T11:23:54;2.20;99.90
25112;DHT22;13092;51.996;4.458;2022-12-10T11:26:52;2.20;99.90
25112;DHT22;13092;51.996;4.458;2022-12-10T11:29:42;2.30;99.90
25112;DHT22;13092;51.996;4.458;2022-12-10T11:32:30;2.30;99.90
25112;DHT22;13092;51.996;4.458;2022-12-10T11:35:09;2.30;99.90
25112;DHT22;13092;51.996;4.458;2022-12-10T11:37:46;2.50;99.90
25112;DHT22;13092;51.996;4.458;2022-12-10T11:40:30;2.30;99.90
25112;DHT22;13092;51.996;4.458;2022-12-10T11:43:13;2.40;99.90
25112;DHT22;13092;51.996;4.458;2022-12-10T11:45:59;2.40;99.90
25112;DHT22;13092;51.996;4.458;2022-12-10T11:48:37;2.50;99.90
25112;DHT22;13092;51.996;4.458;2022-12-10T11:51:15;2.40;99.90
25112;DHT22;13092;51.996;4.458;2022-12-10T11:54:01;2.40;99.90
25112;DHT22;13092;51.996;4.458;2022-12-10T11:56:35;2.40;99.90
25112;DHT22;13092;51.996;4.458;2022-12-10T11:59:15;2.40;99.90
25112;DHT22;13092;51.996;4.458;2022-12-10T12:02:02;2.50;99.90
25112;DHT22;13092;51.996;4.458;2022-12-10T12:04:42;2.50;99.90
25112;DHT22;13092;51.996;4.458;2022-12-10T12:07:37;2.50;99.90
25112;DHT22;13092;51.996;4.458;2022-12-10T12:13:24;2.50;99.90
25112;DHT22;13092;51.996;4.458;2022-12-10T12:15:58;2.50;99.90
25112;DHT22;13092;51.996;4.458;2022-12-10T12:18:41;2.50;99.90
25112;DHT22;13092;51.996;4.458;2022-12-10T12:21:13;2.60;99.90
25112;DHT22;13092;51.996;4.458;2022-12-10T12:23:49;2.50;99.90
25112;DHT22;13092;51.996;4.458;2022-12-10T12:26:21;2.50;99.90
25112;DHT22;13092;51.996;4.458;2022-12-10T12:28:55;2.60;99.90
25112;DHT22;13092;51.996;4.458;2022-12-10T12:31:32;2.50;99.90
25112;DHT22;13092;51.996;4.458;2022-12-10T12:34:05;2.50;99.90
25112;DHT22;13092;51.996;4.458;2022-12-10T12:36:38;2.60;99.90
25112;DHT22;13092;51.996;4.458;2022-12-10T12:39:15;2.50;99.90
25112;DHT22;13092;51.996;4.458;2022-12-10T12:41:51;2.60;99.90
25112;DHT22;13092;51.996;4.458;2022-12-10T12:44:33;2.60;99.90
25112;DHT22;13092;51.996;4.458;2022-12-10T12:49:55;2.50;99.90
25112;DHT22;13092;51.996;4.458;2022-12-10T12:52:30;2.60;99.90
25112;DHT22;13092;51.996;4.458;2022-12-10T12:55:05;2.70;99.90
25112;DHT22;13092;51.996;4.458;2022-12-10T12:57:38;2.70;99.90
25112;DHT22;13092;51.996;4.458;2022-12-10T13:00:12;2.60;99.90
25112;DHT22;13092;51.996;4.458;2022-12-10T13:02:54;2.70;99.90
25112;DHT22;13092;51.996;4.458;2022-12-10T13:05:28;2.70;99.90
25112;DHT22;13092;51.996;4.458;2022-12-10T13:08:25;2.80;99.90
25112;DHT22;13092;51.996;4.458;2022-12-10T13:11:00;2.60;99.90
25112;DHT22;13092;51.996;4.458;2022-12-10T13:14:09;2.60;99.90
25112;DHT22;13092;51.996;4.458;2022-12-10T13:17:01;2.60;99.90
25112;DHT22;13092;51.996;4.458;2022-12-10T13:19:31;2.60;99.90
25112;DHT22;13092;51.996;4.458;2022-12-10T13:22:05;2.60;99.90
25112;DHT22;13092;51.996;4.458;2022-12-10T13:27:54;2.60;99.90
25112;DHT22;13092;51.996;4.458;2022-12-10T13:30:35;2.70;99.90
25112;DHT22;13092;51.996;4.458;2022-12-10T13:33:12;2.80;99.90
25112;DHT22;13092;51.996;4.458;2022-12-10T13:35:57;2.80;99.90
25112;DHT22;13092;51.996;4.458;2022-12-10T13:38:40;2.80;99.90
25112;DHT22;13092;51.996;4.458;2022-12-10T13:41:10;3.00;99.90
25112;DHT22;13092;51.996;4.458;2022-12-10T13:43:59;3.10;99.90
25112;DHT22;13092;51.996;4.458;2022-12-10T13:47:00;3.00;99.90
25112;DHT22;13092;51.996;4.458;2022-12-10T13:49:44;3.00;99.90
25112;DHT22;13092;51.996;4.458;2022-12-10T13:52:23;3.10;99.90
25112;DHT22;13092;51.996;4.458;2022-12-10T13:55:09;3.10;99.90
25112;DHT22;13092;51.996;4.458;2022-12-10T13:58:22;3.10;99.90
25112;DHT22;13092;51.996;4.458;2022-12-10T14:00:56;3.10;99.90
25112;DHT22;13092;51.996;4.458;2022-12-10T14:03:46;3.10;99.90
25112;DHT22;13092;51.996;4.458;2022-12-10T14:06:20;3.10;99.90
25112;DHT22;13092;51.996;4.458;2022-12-10T14:08:59;3.10;99.90
25112;DHT22;13092;51.996;4.458;2022-12-10T14:11:30;3.10;99.90
25112;DHT22;13092;51.996;4.458;2022-12-10T14:14:06;3.10;99.90
25112;DHT22;13092;51.996;4.458;2022-12-10T14:16:37;3.20;99.90
25112;DHT22;13092;51.996;4.458;2022-12-10T14:19:09;3.20;99.90
25112;DHT22;13092;51.996;4.458;2022-12-10T14:21:41;3.20;99.90
25112;DHT22;13092;51.996;4.458;2022-12-10T14:27:14;3.20;99.90
25112;DHT22;13092;51.996;4.458;2022-12-10T14:29:46;3.30;99.90
25112;DHT22;13092;51.996;4.458;2022-12-10T14:32:16;3.30;99.90
25112;DHT22;13092;51.996;4.458;2022-12-10T14:34:50;3.20;99.90
25112;DHT22;13092;51.996;4.458;2022-12-10T14:37:24;3.30;99.90
25112;DHT22;13092;51.996;4.458;2022-12-10T14:39:53;3.30;99.90
25112;DHT22;13092;51.996;4.458;2022-12-10T14:42:26;3.40;99.90
25112;DHT22;13092;51.996;4.458;2022-12-10T14:44:57;3.30;99.90
25112;DHT22;13092;51.996;4.458;2022-12-10T14:47:27;3.30;99.90
25112;DHT22;13092;51.996;4.458;2022-12-10T14:50:00;3.30;99.90
25112;DHT22;13092;51.996;4.458;2022-12-10T14:52:32;3.30;99.90
25112;DHT22;13092;51.996;4.458;2022-12-10T14:55:02;3.30;99.90
25112;DHT22;13092;51.996;4.458;2022-12-10T14:57:34;3.30;99.90
25112;DHT22;13092;51.996;4.458;2022-12-10T15:00:06;3.40;99.90
25112;DHT22;13092;51.996;4.458;2022-12-10T15:02:37;3.40;99.90
25112;DHT22;13092;51.996;4.458;2022-12-10T15:05:10;3.40;99.90
25112;DHT22;13092;51.996;4.458;2022-12-10T15:07:40;3.40;99.90
25112;DHT22;13092;51.996;4.458;2022-12-10T15:10:23;3.40;99.90
25112;DHT22;13092;51.996;4.458;2022-12-10T15:12:54;3.40;99.90
25112;DHT22;13092;51.996;4.458;2022-12-10T15:15:31;3.50;99.90
25112;DHT22;13092;51.996;4.458;2022-12-10T15:18:03;3.40;99.90
25112;DHT22;13092;51.996;4.458;2022-12-10T15:20:37;3.40;99.90
25112;DHT22;13092;51.996;4.458;2022-12-10T15:23:11;3.40;99.90
25112;DHT22;13092;51.996;4.458;2022-12-10T15:25:45;3.50;99.90
25112;DHT22;13092;51.996;4.458;2022-12-10T15:28:22;3.50;99.90
25112;DHT22;13092;51.996;4.458;2022-12-10T15:30:51;3.50;99.90
25112;DHT22;13092;51.996;4.458;2022-12-10T15:33:37;3.70;99.90
25112;DHT22;13092;51.996;4.458;2022-12-10T15:36:20;3.60;99.90
25112;DHT22;13092;51.996;4.458;2022-12-10T15:38:50;3.60;99.90
25112;DHT22;13092;51.996;4.458;2022-12-10T15:41:24;3.60;99.90
25112;DHT22;13092;51.996;4.458;2022-12-10T15:44:02;3.60;99.90
25112;DHT22;13092;51.996;4.458;2022-12-10T15:46:30;3.50;99.90
25112;DHT22;13092;51.996;4.458;2022-12-10T15:48:59;3.40;99.90
25112;DHT22;13092;51.996;4.458;2022-12-10T15:51:27;3.60;99.90
25112;DHT22;13092;51.996;4.458;2022-12-10T15:53:57;3.60;99.90
25112;DHT22;13092;51.996;4.458;2022-12-10T15:56:25;3.60;99.90
25112;DHT22;13092;51.996;4.458;2022-12-10T15:58:53;3.50;99.90
25112;DHT22;13092;51.996;4.458;2022-12-10T16:01:23;3.50;99.90
25112;DHT22;13092;51.996;4.458;2022-12-10T16:03:51;3.50;99.90
25112;DHT22;13092;51.996;4.458;2022-12-10T16:06:20;3.50;99.90
25112;DHT22;13092;51.996;4.458;2022-12-10T16:08:48;3.50;99.90
25112;DHT22;13092;51.996;4.458;2022-12-10T16:11:18;3.50;99.90
25112;DHT22;13092;51.996;4.458;2022-12-10T16:13:52;3.50;99.90
25112;DHT22;13092;51.996;4.458;2022-12-10T16:16:22;3.50;99.90
25112;DHT22;13092;51.996;4.458;2022-12-10T16:18:50;3.50;99.90
25112;DHT22;13092;51.996;4.458;2022-12-10T16:21:19;3.50;99.90
25112;DHT22;13092;51.996;4.458;2022-12-10T16:23:49;3.60;99.90
25112;DHT22;13092;51.996;4.458;2022-12-10T16:26:20;3.60;99.90
25112;DHT22;13092;51.996;4.458;2022-12-10T16:28:50;3.60;99.90
25112;DHT22;13092;51.996;4.458;2022-12-10T16:31:20;3.60;99.90